Esslingen-Jägerhaus Airfield

DE-0279 · Baden-Wurtemberg, Alemania

6 de octubre de 2022

Hora Código Tiempo Temp. Visibilidad Cielo nuboso Viento METAR/SPECI
04:50
V
10 °C 10 km+ - 280° 280° 4 kt METAR EDDS 060250Z AUTO 28004KT CAVOK 10/08 Q1026
04:20
V
10 °C 10 km+ - Var Var 1 kt METAR EDDS 060220Z AUTO VRB01KT CAVOK 10/08 Q1026
03:50
V
11 °C 10 km+ - Var Var 2 kt METAR EDDS 060150Z AUTO VRB02KT CAVOK 11/08 Q1026
03:20
V
13 °C 10 km+ - 220° 220° 3 kt METAR EDDS 060120Z AUTO 22003KT 180V260 CAVOK 13/09 Q1025
02:50
V
13 °C 10 km+ - 240° 240° 3 kt METAR EDDS 060050Z AUTO 24003KT CAVOK 13/09 Q1025
02:20
V
15 °C 10 km+ - 220° 220° 3 kt METAR EDDS 060020Z AUTO 22003KT 150V280 CAVOK 15/09 Q1025
01:50
V
15 °C 10 km+ - Var 000° 0 kt METAR EDDS 052350Z AUTO 00000KT CAVOK 15/10 Q1025
01:20
V
15 °C 10 km+ - Var Var 1 kt METAR EDDS 052320Z AUTO VRB01KT CAVOK 15/10 Q1025
00:50
V
15 °C 10 km+ - Var Var 2 kt METAR EDDS 052250Z AUTO VRB02KT CAVOK 15/10 Q1024
00:20
V
15 °C 10 km+ - Var Var 2 kt METAR EDDS 052220Z AUTO VRB02KT CAVOK 15/11 Q1024

5 de octubre de 2022

Hora Código Tiempo Temp. Visibilidad Cielo nuboso Viento METAR/SPECI
23:50
V
14 °C 10 km+ - Var Var 2 kt METAR EDDS 052150Z AUTO VRB02KT CAVOK 14/10 Q1024
23:20
V
14 °C 10 km+ - 250° 250° 4 kt METAR EDDS 052120Z AUTO 25004KT CAVOK 14/10 Q1024
22:50
V
14 °C 10 km+ - 250° 250° 4 kt METAR EDDS 052050Z AUTO 25004KT 210V270 CAVOK 14/10 Q1024
22:20
V
16 °C 10 km+ - 250° 250° 5 kt METAR EDDS 052020Z AUTO 25005KT CAVOK 16/11 Q1023
21:50
V
16 °C 10 km+ - 240° 240° 4 kt METAR EDDS 051950Z AUTO 24004KT CAVOK 16/10 Q1023 NOSIG
21:20
V
17 °C 10 km+ - 200° 200° 4 kt METAR EDDS 051920Z AUTO 20004KT 150V260 CAVOK 17/10 Q1022 NOSIG
20:50
V
18 °C 10 km+ - 230° 230° 5 kt METAR EDDS 051850Z AUTO 23005KT 150V270 CAVOK 18/10 Q1022 NOSIG
20:20
V
19 °C 10 km+ - 230° 230° 6 kt METAR EDDS 051820Z AUTO 23006KT 170V300 CAVOK 19/09 Q1022 NOSIG
19:50
V
19 °C 10 km+ - 230° 230° 5 kt METAR EDDS 051750Z AUTO 23005KT 180V260 CAVOK 19/09 Q1021 NOSIG
19:20
V
19 °C 10 km+ - 240° 240° 6 kt METAR EDDS 051720Z AUTO 24006KT CAVOK 19/09 Q1021
18:50
V
20 °C 10 km+ - 240° 240° 6 kt METAR EDDS 051650Z AUTO 24006KT 210V280 CAVOK 20/09 Q1021 NOSIG
18:20
V
21 °C 10 km+ - 240° 240° 7 kt METAR EDDS 051620Z AUTO 24007KT 200V270 CAVOK 21/08 Q1021 NOSIG
17:50
V
22 °C 10 km+ - 230° 230° 6 kt METAR EDDS 051550Z AUTO 23006KT 170V280 CAVOK 22/08 Q1020 NOSIG
17:20
V
23 °C 10 km+ - 240° 240° 7 kt METAR EDDS 051520Z AUTO 24007KT 190V290 CAVOK 23/08 Q1020 NOSIG
16:50
V
23 °C 10 km+ - 240° 240° 6 kt METAR EDDS 051450Z AUTO 24006KT 200V280 CAVOK 23/08 Q1020 NOSIG
16:20
V
23 °C 10 km+ - 230° 230° 8 kt METAR EDDS 051420Z AUTO 23008KT 170V270 CAVOK 23/08 Q1020 NOSIG
15:50
V
24 °C 10 km+ - Var Var 7 kt METAR EDDS 051350Z AUTO VRB07KT CAVOK 24/08 Q1020 NOSIG
15:20
V
24 °C 10 km+ - 230° 230° 11 kt METAR EDDS 051320Z AUTO 23011KT 190V270 CAVOK 24/07 Q1020 NOSIG
14:50
V
23 °C 10 km+ - 200° 200° 7 kt METAR EDDS 051250Z AUTO 20007KT 090V260 CAVOK 23/12 Q1020 NOSIG
14:20
V
23 °C 10 km+ - Var Var 6 kt METAR EDDS 051220Z AUTO VRB06KT CAVOK 23/13 Q1021
13:50
V
22 °C 10 km+ - 220° 220° 6 kt METAR EDDS 051150Z AUTO 22006KT 150V270 CAVOK 22/12 Q1021 NOSIG
13:20
V
22 °C 10 km+ - Var Var 4 kt METAR EDDS 051120Z AUTO VRB04KT CAVOK 22/12 Q1021 BECMG 20006KT
12:50
V
21 °C 10 km+ - 160° 160° 5 kt METAR EDDS 051050Z AUTO 16005KT 090V220 CAVOK 21/13 Q1021 BECMG 22006KT
12:20
V
19 °C 10 km+ - 090° 090° 5 kt METAR EDDS 051020Z AUTO 09005KT 070V130 CAVOK 19/12 Q1022 BECMG 20006KT
11:50
V
18 °C 10 km+ - Var Var 3 kt METAR EDDS 050950Z AUTO VRB03KT CAVOK 18/12 Q1022 BECMG 20006KT
11:20
V
17 °C 10 km+ - 090° 090° 4 kt METAR EDDS 050920Z AUTO 09004KT 040V130 CAVOK 17/11 Q1022 BECMG 20006KT
10:50
V
15 °C 10 km+ - 090° 090° 3 kt METAR EDDS 050850Z AUTO 09003KT 050V140 CAVOK 15/11 Q1022 BECMG 20006KT
10:20
V
13 °C 10 km+ - Var Var 2 kt METAR EDDS 050820Z AUTO VRB02KT CAVOK 13/10 Q1022 NOSIG
09:50
V
11 °C 10 km+ - 090° 090° 4 kt METAR EDDS 050750Z AUTO 09004KT 060V120 CAVOK 11/09 Q1022 NOSIG
09:20
V
9 °C 10 km+ - Var Var 2 kt METAR EDDS 050720Z AUTO VRB02KT CAVOK 09/07 Q1022 NOSIG
08:50
V
8 °C 10 km+ - Var Var 2 kt METAR EDDS 050650Z AUTO VRB02KT CAVOK 08/06 Q1022 NOSIG
08:20
V
6 °C 10 km+ - Var Var 2 kt METAR EDDS 050620Z AUTO VRB02KT CAVOK 06/06 Q1022 NOSIG
07:50
V
6 °C 10 km+ - Var Var 2 kt METAR EDDS 050550Z AUTO VRB02KT CAVOK 06/05 Q1022 NOSIG
07:20
V
6 °C 10 km+ - 310° 310° 1 kt METAR EDDS 050520Z AUTO 31001KT CAVOK 06/05 Q1021 NOSIG
06:50
V
5 °C 10 km+ - Var Var 2 kt METAR EDDS 050450Z AUTO VRB02KT CAVOK 05/05 Q1021 TEMPO 4000 BCFG
06:20
V
7 °C 10 km+ - Var Var 1 kt METAR EDDS 050420Z AUTO VRB01KT CAVOK 07/06 Q1021 NOSIG
05:50
V
6 °C 10 km+ - Var Var 1 kt METAR EDDS 050350Z AUTO VRB01KT CAVOK 06/05 Q1021
05:20
V
7 °C 10 km+ - 320° 320° 3 kt METAR EDDS 050320Z AUTO 32003KT CAVOK 07/06 Q1022
04:50
V
6 °C 10 km+ - Var Var 1 kt METAR EDDS 050250Z AUTO VRB01KT CAVOK 06/06 Q1021
04:20
V
7 °C 10 km+ - 090° 090° 2 kt METAR EDDS 050220Z AUTO 09002KT CAVOK 07/07 Q1022
03:50
V
7 °C 10 km+ - Var Var 1 kt METAR EDDS 050150Z AUTO VRB01KT CAVOK 07/07 Q1022
03:20
V
8 °C 10 km+ - Var Var 1 kt METAR EDDS 050120Z AUTO VRB01KT CAVOK 08/07 Q1022
02:50
V
8 °C 10 km+ - Var Var 1 kt METAR EDDS 050050Z AUTO VRB01KT CAVOK 08/07 Q1022
02:20
V
9 °C 10 km+ - Var Var 2 kt METAR EDDS 050020Z AUTO VRB02KT CAVOK 09/08 Q1022
01:50
V
7 °C 10 km+ - 260° 260° 3 kt METAR EDDS 042350Z AUTO 26003KT 220V290 CAVOK 07/07 Q1022
01:20
L
7 °C 1,2 km - Var Var 1 kt METAR EDDS 042320Z AUTO VRB01KT 9999 1200 R25/P2000N BR NSC 07/07 Q1022
00:50
V
8 °C 10 km+ - Var Var 1 kt METAR EDDS 042250Z AUTO VRB01KT CAVOK 08/08 Q1023
00:20
V
9 °C 10 km+ - Var Var 1 kt METAR EDDS 042220Z AUTO VRB01KT CAVOK 09/09 Q1023

4 de octubre de 2022

Hora Código Tiempo Temp. Visibilidad Cielo nuboso Viento METAR/SPECI
23:50
V
9 °C 10 km+ - Var Var 1 kt METAR EDDS 042150Z AUTO VRB01KT CAVOK 09/09 Q1023
23:20
V
10 °C 10 km+ - 090° 090° 1 kt METAR EDDS 042120Z AUTO 09001KT CAVOK 10/09 Q1023
22:50
V
9 °C 10 km+ - Var Var 1 kt METAR EDDS 042050Z AUTO VRB01KT CAVOK 09/08 Q1023
22:20
V
10 °C 10 km+ - Var Var 2 kt METAR EDDS 042020Z AUTO VRB02KT CAVOK 10/08 Q1022
21:50
V
10 °C 10 km+ - 060° 060° 2 kt METAR EDDS 041950Z AUTO 06002KT CAVOK 10/09 Q1022 NOSIG
21:20
V
10 °C 10 km+ - 070° 070° 2 kt METAR EDDS 041920Z AUTO 07002KT CAVOK 10/09 Q1022 NOSIG
20:50
V
11 °C 10 km+ - Var Var 1 kt METAR EDDS 041850Z AUTO VRB01KT CAVOK 11/09 Q1022 NOSIG
20:20
V
12 °C 10 km+ - 100° 100° 2 kt METAR EDDS 041820Z AUTO 10002KT CAVOK 12/10 Q1022 NOSIG
19:50
V
12 °C 10 km+ - Var Var 1 kt METAR EDDS 041750Z AUTO VRB01KT CAVOK 12/09 Q1022 NOSIG
19:20
V
13 °C 10 km+ - 130° 130° 1 kt METAR EDDS 041720Z AUTO 13001KT CAVOK 13/10 Q1022 NOSIG
18:50
V
15 °C 10 km+ - 100° 100° 2 kt METAR EDDS 041650Z AUTO 10002KT CAVOK 15/11 Q1022 NOSIG
18:20
V
17 °C 10 km+ - 080° 080° 3 kt METAR EDDS 041620Z AUTO 08003KT 050V110 CAVOK 17/12 Q1022 NOSIG
17:50
V
17 °C 10 km+ - 090° 090° 4 kt METAR EDDS 041550Z AUTO 09004KT 050V110 CAVOK 17/11 Q1022 NOSIG
17:20
V
18 °C 10 km+ - 070° 070° 4 kt METAR EDDS 041520Z AUTO 07004KT CAVOK 18/12 Q1022 NOSIG
16:50
V
18 °C 10 km+ - 100° 100° 3 kt METAR EDDS 041450Z AUTO 10003KT 060V180 CAVOK 18/11 Q1022 NOSIG
16:20
V
18 °C 10 km+ - Var Var 3 kt METAR EDDS 041420Z AUTO VRB03KT CAVOK 18/10 Q1022 NOSIG
15:50
V
18 °C 10 km+ - 080° 080° 3 kt METAR EDDS 041350Z AUTO 08003KT 030V130 CAVOK 18/11 Q1022 NOSIG
15:20
V
17 °C 10 km+ - 050° 050° 3 kt METAR EDDS 041320Z AUTO 05003KT 350V130 CAVOK 17/10 Q1022 NOSIG
14:50
V
17 °C 10 km+ - 080° 080° 4 kt METAR EDDS 041250Z AUTO 08004KT 030V110 CAVOK 17/10 Q1022 NOSIG
14:20
V
16 °C 10 km+ - Var Var 3 kt METAR EDDS 041220Z AUTO VRB03KT CAVOK 16/10 Q1022 NOSIG
13:50
V
15 °C 10 km+ - Var Var 3 kt METAR EDDS 041150Z AUTO VRB03KT CAVOK 15/09 Q1023 NOSIG
13:20
V
15 °C 10 km+ - Var Var 2 kt METAR EDDS 041120Z AUTO VRB02KT CAVOK 15/10 Q1023 NOSIG
12:50
V
14 °C 10 km+ - 130° 130° 3 kt METAR EDDS 041050Z AUTO 13003KT 040V170 CAVOK 14/09 Q1023 NOSIG
12:20
V
13 °C 10 km+ - 110° 110° 3 kt METAR EDDS 041020Z AUTO 11003KT 060V180 CAVOK 13/09 Q1023 NOSIG
11:50
V
11 °C 10 km+ - Var Var 2 kt METAR EDDS 040950Z AUTO VRB02KT CAVOK 11/08 Q1023 NOSIG
11:20
V
10 °C 10 km+ - Var Var 1 kt METAR EDDS 040920Z AUTO VRB01KT CAVOK 10/08 Q1023 NOSIG
10:50
V
8 °C 10 km+ - Var Var 2 kt METAR EDDS 040850Z AUTO VRB02KT 9999 FEW002 08/07 Q1023 NOSIG
10:20
V
7 °C 10 km+ - 090° 090° 3 kt METAR EDDS 040820Z AUTO 09003KT 030V190 9999 FEW002 07/06 Q1023 NOSIG
09:50
V
6 °C 10 km+ - 060° 060° 3 kt METAR EDDS 040750Z AUTO 06003KT 030V100 CAVOK 06/06 Q1023 NOSIG
09:20
V
6 °C 10 km+ - Var Var 1 kt METAR EDDS 040720Z AUTO VRB01KT CAVOK 06/05 Q1023 NOSIG
08:50
V
5 °C 10 km+ - Var Var 1 kt METAR EDDS 040650Z AUTO VRB01KT CAVOK 05/05 Q1023 NOSIG
08:20
L
4 °C 350 m - Var Var 1 kt METAR EDDS 040620Z AUTO VRB01KT 0900 0350 R07/P2000N FG NSC 04/04 Q1023 BECMG 0800
07:50
L
4 °C 450 m - Var Var 1 kt METAR EDDS 040550Z AUTO VRB01KT 0450 R07/1300D FG FEW001 04/04 Q1023 TEMPO 0300
07:20
L
4 °C 700 m - 030° 030° 1 kt METAR EDDS 040520Z AUTO 03001KT 1000 0700 R07/1600D BCFG FEW001 04/04 Q1023 TEMPO 0600
06:50
L
4 °C 600 m - Var Var 2 kt METAR EDDS 040450Z AUTO VRB02KT 0650 0600 R07/P2000N FG FEW001 04/04 Q1023 TEMPO 0400
06:20
L
4 °C 600 m - 080° 080° 1 kt METAR EDDS 040420Z AUTO 08001KT 1100 0600 R07/1900N BCFG FEW001 04/04 Q1023 TEMPO 0400
05:50
L
4 °C 600 m - Var Var 1 kt METAR EDDS 040350Z AUTO VRB01KT 0650 0600 R07/1900N FG FEW001 04/04 Q1023
05:20
L
0 °C 650 m - Var Var 1 kt METAR EDDS 040320Z AUTO VRB01KT 0900 0650 R25/1300D FEW001 ///// Q////
04:50
L
4 °C 450 m - 260° 260° 3 kt METAR EDDS 040250Z AUTO 26003KT 0450 R25/1400U FG FEW001 04/04 Q1023
04:20
L
5 °C 350 m - Var 000° 0 kt METAR EDDS 040220Z AUTO 00000KT 0500 0350 R25/0400N FG FEW001 05/05 Q1023
03:50
L
5 °C 450 m - 300° 300° 1 kt METAR EDDS 040150Z AUTO 30001KT 0800 0450 R25/1000U FG FEW001 05/05 Q1023
03:20
L
5 °C 200 m - 330° 330° 1 kt METAR EDDS 040120Z AUTO 33001KT 0350 0200 R25/0650U FG FEW002 05/05 Q1024
02:50
L
5 °C 900 m - Var Var 1 kt METAR EDDS 040050Z AUTO VRB01KT 7000 0900 R25/1300D BCFG FEW001 05/05 Q1024
02:20
L
4 °C 650 m - 280° 280° 3 kt METAR EDDS 040020Z AUTO 28003KT 1400 0650 R25/1700D BCFG FEW001 04/05 Q1024
01:50
L
5 °C 900 m - 340° 340° 1 kt METAR EDDS 032350Z AUTO 34001KT 9999 0900 R25/1200U BCFG NCD 05/05 Q1024
01:20
V
6 °C 10 km+ - Var Var 1 kt METAR EDDS 032320Z AUTO VRB01KT CAVOK 06/05 Q1024
00:50
V
6 °C 10 km+ - Var Var 2 kt METAR EDDS 032250Z AUTO VRB02KT CAVOK 06/06 Q1025
00:20
V
7 °C 10 km+ - Var Var 1 kt METAR EDDS 032220Z AUTO VRB01KT CAVOK 07/07 Q1025
Datos más antiguos

Nosotros y terceros seguimos tu comportamiento en Internet en nuestro sitio web con cookies. Si continúas, asumimos que estás de acuerdo con nuestra política de cookies. Más información